Time;durP1;ratioP1;P1;durP2;ratioP2;P2;SDS_P1;SDS_P2;PMS_P1;PMS_P2;Temp;Humidity;BMP_temperature;BMP_pressure;BME280_temperature;BME280_humidity;BME280_pressure;Samples;Min_cycle;Max_cycle;Signal;HPM_P1;HPM_P2
2021/10/22 00:02:16;;;;;;;20.08;8.60;;;;;;;12.37;100.00;100578.17;1678475;85;21064;-81
2021/10/22 00:04:43;;;;;;;18.05;7.90;;;;;;;12.36;100.00;100580.06;1678689;85;21551;-82
2021/10/22 00:07:10;;;;;;;19.82;8.28;;;;;;;12.35;100.00;100574.92;1678253;85;21039;-81
2021/10/22 00:09:35;;;;;;;22.42;8.18;;;;;;;12.33;100.00;100563.05;1678586;85;21105;-82
2021/10/22 00:12:01;;;;;;;16.17;7.72;;;;;;;12.34;100.00;100564.66;1696657;82;20935;-82
2021/10/22 00:14:28;;;;;;;19.35;8.95;;;;;;;12.35;100.00;100562.21;1748661;82;21018;-81
2021/10/22 00:16:54;;;;;;;25.80;8.30;;;;;;;12.38;100.00;100566.27;1748797;82;21069;-79
2021/10/22 00:19:20;;;;;;;22.10;8.75;;;;;;;12.41;100.00;100560.31;1748505;82;21015;-82
2021/10/22 00:21:46;;;;;;;22.02;8.58;;;;;;;12.43;100.00;100556.27;1748656;82;21499;-81
2021/10/22 00:24:12;;;;;;;24.55;8.63;;;;;;;12.46;100.00;100565.72;1748659;82;20940;-87
2021/10/22 00:26:38;;;;;;;16.65;8.35;;;;;;;12.48;100.00;100554.91;1749040;82;21097;-78
2021/10/22 00:31:33;;;;;;;23.77;8.65;;;;;;;12.53;100.00;100539.75;1709209;83;21332;-83
2021/10/22 00:33:58;;;;;;;18.65;8.63;;;;;;;12.56;100.00;100547.31;1709573;83;21001;-82
2021/10/22 00:36:25;;;;;;;22.77;8.98;;;;;;;12.58;100.00;100552.72;1709450;83;21589;-82
2021/10/22 00:38:51;;;;;;;23.55;9.23;;;;;;;12.59;100.00;100551.66;1709596;83;21115;-81
2021/10/22 00:41:18;;;;;;;21.80;8.60;;;;;;;12.63;100.00;100558.67;1709653;83;21839;-82
2021/10/22 00:43:47;;;;;;;26.27;9.28;;;;;;;12.65;100.00;100551.09;1709578;83;21013;-81
2021/10/22 00:46:14;;;;;;;19.17;9.18;;;;;;;12.67;100.00;100549.72;1705369;83;21072;-79
2021/10/22 00:48:40;;;;;;;21.40;8.53;;;;;;;12.69;100.00;100549.45;1709698;83;21100;-82
2021/10/22 00:51:11;;;;;;;20.37;9.03;;;;;;;12.69;100.00;100550.27;1709656;83;21067;-82
2021/10/22 00:53:37;;;;;;;20.32;7.92;;;;;;;12.72;100.00;100541.59;1709987;83;21669;-83
2021/10/22 00:56:07;;;;;;;21.48;8.43;;;;;;;12.75;100.00;100538.89;1709572;83;22207;-80
2021/10/22 00:58:35;;;;;;;20.23;7.75;;;;;;;12.76;100.00;100547.80;1699915;84;21105;-80
2021/10/22 01:01:01;;;;;;;27.10;8.73;;;;;;;12.79;100.00;100546.70;1700148;84;21069;-82
2021/10/22 01:03:27;;;;;;;20.15;8.18;;;;;;;12.82;100.00;100552.11;1699787;84;20979;-82
2021/10/22 01:05:53;;;;;;;19.35;8.05;;;;;;;12.83;100.00;100549.69;1700038;84;21954;-78
2021/10/22 01:08:19;;;;;;;21.65;8.35;;;;;;;12.84;100.00;100553.45;1699993;84;21049;-82
2021/10/22 01:10:45;;;;;;;21.52;8.18;;;;;;;12.86;100.00;100547.79;1699931;84;21018;-83
2021/10/22 01:13:11;;;;;;;20.90;8.30;;;;;;;12.87;100.00;100555.61;1700042;84;21130;-82
2021/10/22 01:15:37;;;;;;;22.22;8.60;;;;;;;12.88;100.00;100555.06;1700035;84;20895;-82
2021/10/22 01:18:03;;;;;;;22.45;8.15;;;;;;;12.88;100.00;100560.47;1699833;84;21085;-82
2021/10/22 01:20:30;;;;;;;32.10;8.88;;;;;;;12.90;100.00;100558.31;1700019;84;21428;-82
2021/10/22 01:22:56;;;;;;;23.38;8.70;;;;;;;12.90;100.00;100557.76;1699736;84;21558;-82
2021/10/22 01:25:27;;;;;;;22.32;8.78;;;;;;;12.92;100.00;100562.36;1699732;84;21029;-79
2021/10/22 01:27:55;;;;;;;19.75;8.38;;;;;;;12.94;100.00;100571.53;1705076;83;21577;-80
2021/10/22 01:30:25;;;;;;;18.77;8.30;;;;;;;12.94;100.00;100562.07;1725893;83;21538;-81
2021/10/22 01:33:02;;;;;;;23.45;9.20;;;;;;;12.95;100.00;100571.27;1725885;83;21499;-82
2021/10/22 01:35:29;;;;;;;20.97;8.40;;;;;;;12.98;100.00;100574.52;1669681;85;21172;-82
2021/10/22 01:37:55;;;;;;;18.05;9.08;;;;;;;12.98;100.00;100580.73;1669006;85;21077;-81
2021/10/22 01:40:21;;;;;;;17.98;8.65;;;;;;;12.99;100.00;100578.29;1669861;85;21010;-81
2021/10/22 01:42:47;;;;;;;21.12;9.40;;;;;;;13.02;100.00;100568.81;1669873;85;21032;-80
2021/10/22 01:45:13;;;;;;;23.47;9.50;;;;;;;13.03;100.00;100581.25;1669537;85;21070;-83
2021/10/22 01:47:39;;;;;;;27.20;9.40;;;;;;;13.03;100.00;100575.31;1669641;85;21076;-82
2021/10/22 01:50:07;;;;;;;20.50;9.23;;;;;;;13.04;100.00;100573.41;1669650;85;20983;-81
2021/10/22 01:52:34;;;;;;;21.50;9.30;;;;;;;13.04;100.00;100571.52;1669882;85;21050;-80
2021/10/22 01:55:00;;;;;;;25.00;9.60;;;;;;;13.05;100.00;100571.77;1683750;83;21088;-81
2021/10/22 01:57:27;;;;;;;23.50;9.03;;;;;;;13.07;100.00;100572.31;1711286;83;21094;-82
2021/10/22 01:59:53;;;;;;;21.25;9.80;;;;;;;13.09;100.00;100570.70;1711583;83;21618;-80
2021/10/22 02:02:19;;;;;;;20.48;9.20;;;;;;;13.10;100.00;100577.17;1711644;83;21074;-82
2021/10/22 02:04:45;;;;;;;24.18;8.80;;;;;;;13.13;100.00;100565.79;1711505;83;21011;-81
2021/10/22 02:07:11;;;;;;;25.77;10.28;;;;;;;13.14;100.00;100573.36;1711519;83;21144;-86
2021/10/22 02:09:37;;;;;;;26.27;9.93;;;;;;;13.15;100.00;100581.22;1687595;83;21031;-81
2021/10/22 02:12:05;;;;;;;28.23;9.65;;;;;;;13.17;100.00;100580.38;1711222;83;21040;-82
2021/10/22 02:14:31;;;;;;;24.02;9.40;;;;;;;13.17;100.00;100570.09;1711694;83;20993;-83
2021/10/22 02:16:56;;;;;;;19.07;8.53;;;;;;;13.20;100.00;100583.07;1711819;83;21806;-81
2021/10/22 02:19:22;;;;;;;21.85;9.53;;;;;;;13.19;100.00;100576.86;1707508;83;21062;-79
2021/10/22 02:21:48;;;;;;;21.93;8.95;;;;;;;13.19;100.00;100573.34;1683027;85;20868;-81
2021/10/22 02:24:14;;;;;;;28.52;9.48;;;;;;;13.19;100.00;100571.44;1683030;85;21045;-83
2021/10/22 02:26:40;;;;;;;21.85;9.40;;;;;;;13.21;100.00;100562.23;1682844;85;20904;-82
2021/10/22 02:29:06;;;;;;;20.48;9.33;;;;;;;13.23;100.00;100561.41;1680054;85;20936;-81
2021/10/22 02:31:32;;;;;;;21.27;9.60;;;;;;;13.22;100.00;100558.45;1687828;83;21655;-87
2021/10/22 02:33:58;;;;;;;25.55;9.53;;;;;;;13.22;100.00;100560.61;1722449;82;21381;-81
2021/10/22 02:36:24;;;;;;;20.08;9.28;;;;;;;13.24;100.00;100561.70;1721326;82;21032;-79
2021/10/22 02:38:49;;;;;;;22.20;9.38;;;;;;;13.22;100.00;100561.16;1721708;83;20929;-82
2021/10/22 02:41:15;;;;;;;24.98;9.80;;;;;;;13.23;100.00;100561.41;1721414;83;20882;-81
2021/10/22 02:43:41;;;;;;;17.57;8.65;;;;;;;13.23;100.00;100562.77;1727407;82;21053;-81
2021/10/22 02:46:07;;;;;;;18.85;8.98;;;;;;;13.23;100.00;100557.36;1721737;82;21600;-81
2021/10/22 02:48:33;;;;;;;24.25;9.43;;;;;;;13.22;100.00;100553.84;1721541;82;21557;-80
2021/10/22 02:50:59;;;;;;;20.35;9.38;;;;;;;13.25;100.00;100559.25;1727580;82;20941;-82
2021/10/22 02:53:25;;;;;;;18.95;8.93;;;;;;;13.27;100.00;100557.11;1727339;82;20906;-82
2021/10/22 02:55:51;;;;;;;24.98;9.05;;;;;;;13.27;100.00;100543.03;1721262;83;21957;-79
2021/10/22 02:58:17;;;;;;;18.62;9.13;;;;;;;13.28;100.00;100520.84;1727513;81;20993;-81
2021/10/22 03:00:43;;;;;;;21.77;9.35;;;;;;;13.27;100.00;100517.33;1725725;81;21035;-82
2021/10/22 03:03:10;;;;;;;23.57;9.68;;;;;;;13.26;100.00;100521.09;1751415;82;21039;-82
2021/10/22 03:05:36;;;;;;;22.37;9.00;;;;;;;13.24;100.00;100517.85;1751381;82;20969;-80
2021/10/22 03:08:02;;;;;;;23.65;9.63;;;;;;;13.26;100.00;100510.27;1751419;82;22002;-83
2021/10/22 03:10:28;;;;;;;19.60;8.35;;;;;;;13.27;100.00;100522.73;1751451;81;20858;-82
2021/10/22 03:12:54;;;;;;;24.40;9.75;;;;;;;13.26;100.00;100512.98;1732366;82;20987;-82
2021/10/22 03:15:20;;;;;;;21.17;8.93;;;;;;;13.28;100.00;100514.87;1750979;82;20880;-82
2021/10/22 03:17:46;;;;;;;22.62;9.98;;;;;;;13.29;100.00;100514.32;1751495;81;20992;-82
2021/10/22 03:20:12;;;;;;;22.27;9.05;;;;;;;13.32;100.00;100518.63;1751347;81;21743;-85
2021/10/22 03:22:39;;;;;;;24.77;8.78;;;;;;;13.33;100.00;100525.67;1751368;81;20988;-82
2021/10/22 03:25:07;;;;;;;23.07;9.23;;;;;;;13.33;100.00;100532.44;1751301;81;21079;-82
2021/10/22 03:27:34;;;;;;;23.47;9.88;;;;;;;13.35;100.00;100534.85;1751292;81;21027;-86
2021/10/22 03:30:00;;;;;;;21.87;9.25;;;;;;;13.35;100.00;100540.27;1755483;81;20992;-82
2021/10/22 03:32:27;;;;;;;23.42;9.45;;;;;;;13.35;100.00;100532.98;1756756;80;21097;-82
2021/10/22 03:34:53;;;;;;;22.42;9.03;;;;;;;13.38;100.00;100527.53;1756777;81;21528;-81
2021/10/22 03:37:19;;;;;;;18.20;8.03;;;;;;;13.39;100.00;100534.03;1756724;81;20904;-82
2021/10/22 03:39:45;;;;;;;18.60;8.90;;;;;;;13.40;100.00;100532.13;1765061;81;20996;-80
2021/10/22 03:42:11;;;;;;;21.87;8.70;;;;;;;13.40;100.00;100527.52;1756826;81;20999;-82
2021/10/22 03:44:37;;;;;;;24.40;9.20;;;;;;;13.40;100.00;100529.42;1756844;81;21114;-82
2021/10/22 03:47:05;;;;;;;21.33;8.88;;;;;;;13.41;100.00;100532.37;1756463;81;21030;-81
2021/10/22 03:49:31;;;;;;;24.43;9.15;;;;;;;13.41;100.00;100528.31;1756842;81;20988;-82
2021/10/22 03:51:57;;;;;;;22.32;9.95;;;;;;;13.40;100.00;100533.48;1756804;81;20951;-80
2021/10/22 03:54:22;;;;;;;19.70;8.68;;;;;;;13.38;100.00;100541.89;1756846;81;21630;-84
2021/10/22 03:56:48;;;;;;;22.87;9.48;;;;;;;13.37;100.00;100540.80;1756864;81;20923;-82
2021/10/22 03:59:17;;;;;;;21.97;10.58;;;;;;;13.38;100.00;100545.13;1756768;81;20868;-81
2021/10/22 04:01:45;;;;;;;27.10;9.58;;;;;;;13.40;100.00;100551.07;1756482;81;22119;-78
2021/10/22 04:04:12;;;;;;;26.82;10.15;;;;;;;13.40;100.00;100547.81;1756451;81;21027;-82
2021/10/22 04:06:38;;;;;;;29.35;10.08;;;;;;;13.40;100.00;100550.52;1756747;81;21085;-83
2021/10/22 04:09:04;;;;;;;24.00;9.68;;;;;;;13.40;100.00;100553.23;1756895;80;21149;-79
2021/10/22 04:11:31;;;;;;;20.55;8.50;;;;;;;13.41;100.00;100560.80;1756758;81;21019;-83
2021/10/22 04:13:57;;;;;;;20.43;9.63;;;;;;;13.40;100.00;100561.90;1756756;81;20987;-81
2021/10/22 04:16:23;;;;;;;24.77;9.73;;;;;;;13.39;100.00;100559.74;1756415;81;21535;-81
2021/10/22 04:18:50;;;;;;;19.25;9.43;;;;;;;13.40;100.00;100570.02;1756779;81;20983;-81
2021/10/22 04:21:16;;;;;;;26.57;9.50;;;;;;;13.39;100.00;100574.63;1753741;81;21558;-86
2021/10/22 04:23:42;;;;;;;31.25;9.75;;;;;;;13.39;100.00;100575.18;1756573;81;20889;-83
2021/10/22 04:26:08;;;;;;;21.33;9.80;;;;;;;13.38;100.00;100574.38;1756506;81;21046;-81
2021/10/22 04:28:34;;;;;;;24.55;9.68;;;;;;;13.40;100.00;100563.25;1756379;81;20862;-82
2021/10/22 04:31:00;;;;;;;27.25;10.15;;;;;;;13.42;100.00;100575.17;1756295;81;21617;-81
2021/10/22 04:33:26;;;;;;;25.25;9.93;;;;;;;13.39;100.00;100584.11;1764996;81;21058;-82
2021/10/22 04:35:52;;;;;;;26.07;10.50;;;;;;;13.39;100.00;100591.42;1756498;81;21035;-87
2021/10/22 04:40:52;;;;;;;29.72;11.48;;;;;;;13.37;100.00;100597.09;1756755;81;20988;-83
2021/10/22 04:43:18;;;;;;;31.62;11.80;;;;;;;13.37;100.00;100587.62;1756358;81;20937;-82
2021/10/22 04:45:51;;;;;;;34.10;12.47;;;;;;;13.41;100.00;100591.93;1756850;81;21129;-81
2021/10/22 04:48:18;;;;;;;25.75;10.98;;;;;;;13.44;100.00;100586.51;1756487;81;21016;-80
2021/10/22 04:50:51;;;;;;;30.02;11.03;;;;;;;13.46;100.00;100581.08;1757165;81;21082;-81
2021/10/22 04:53:23;;;;;;;29.80;10.53;;;;;;;13.51;100.00;100594.59;1756784;81;21047;-82
2021/10/22 04:55:47;;;;;;;38.50;11.70;;;;;;;13.52;100.00;100594.85;1756413;81;20995;-84
2021/10/22 04:58:13;;;;;;;30.23;12.75;;;;;;;13.55;100.00;100605.67;1757054;81;21061;-80
2021/10/22 05:00:39;;;;;;;31.27;11.18;;;;;;;13.57;100.00;100599.45;1756898;81;20900;-83
2021/10/22 05:03:05;;;;;;;26.82;11.45;;;;;;;13.62;100.00;100605.64;1756677;81;20908;-82
2021/10/22 05:05:31;;;;;;;31.23;12.15;;;;;;;13.66;100.00;100605.08;1756931;81;21039;-83
2021/10/22 05:07:57;;;;;;;28.47;11.75;;;;;;;13.68;100.00;100609.66;1756659;81;21654;-82
2021/10/22 05:10:25;;;;;;;27.87;11.45;;;;;;;13.75;100.00;100612.88;1756794;81;21041;-80
2021/10/22 05:12:51;;;;;;;23.92;10.60;;;;;;;13.86;100.00;100611.17;1740797;82;21119;-82
2021/10/22 05:15:17;;;;;;;23.55;11.18;;;;;;;14.00;100.00;100613.23;1740988;82;20944;-81
2021/10/22 05:17:43;;;;;;;29.42;12.10;;;;;;;14.20;100.00;100598.17;1741052;82;21625;-82
2021/10/22 05:20:12;;;;;;;26.75;11.22;;;;;;;14.40;100.00;100605.33;1740953;82;20975;-82
2021/10/22 05:22:40;;;;;;;27.60;10.80;;;;;;;14.69;100.00;100592.35;1740557;82;21944;-82
2021/10/22 05:25:10;;;;;;;25.55;10.48;;;;;;;14.94;100.00;100601.58;1665036;86;21442;-83
2021/10/22 05:27:36;;;;;;;20.75;9.63;;;;;;;15.20;100.00;100612.92;1658073;86;21114;-85
2021/10/22 05:30:07;;;;;;;23.85;10.43;;;;;;;15.49;100.00;100607.95;1657096;86;21078;-83
2021/10/22 05:32:34;;;;;;;24.50;9.90;;;;;;;15.73;100.00;100609.83;1633091;86;21542;-83
2021/10/22 05:35:00;;;;;;;25.45;10.95;;;;;;;15.73;100.00;100609.83;1655530;86;21072;-83
2021/10/22 05:37:26;;;;;;;29.63;10.88;;;;;;;15.98;100.00;100610.81;1655786;86;21039;-82
2021/10/22 05:39:52;;;;;;;23.30;10.78;;;;;;;16.96;100.00;100608.03;1655749;86;20943;-82
2021/10/22 05:42:18;;;;;;;26.12;10.75;;;;;;;18.35;100.00;100601.70;1655948;86;20923;-83
2021/10/22 05:44:51;;;;;;;22.35;9.70;;;;;;;19.54;100.00;100595.98;1658962;85;21086;-85
2021/10/22 05:47:17;;;;;;;21.73;9.70;;;;;;;20.66;100.00;100604.69;1658394;85;22052;-83
2021/10/22 05:49:43;;;;;;;19.10;9.53;;;;;;;21.59;100.00;100586.48;1656981;86;21013;-84
2021/10/22 05:52:12;;;;;;;22.07;9.00;;;;;;;22.57;100.00;100589.61;1658647;85;21126;-84
2021/10/22 05:54:38;;;;;;;22.93;9.68;;;;;;;23.47;100.00;100586.97;1642993;86;21209;-85
2021/10/22 05:57:05;;;;;;;21.10;8.75;;;;;;;24.17;88.79;100590.77;1645844;86;21082;-85
2021/10/22 05:59:31;;;;;;;19.98;8.58;;;;;;;24.88;80.51;100583.55;1646788;86;21900;-87
2021/10/22 06:01:57;;;;;;;18.23;9.30;;;;;;;25.19;69.35;100571.71;1646969;86;21039;-86
2021/10/22 06:04:23;;;;;;;16.32;8.35;;;;;;;25.83;65.46;100570.94;1646028;86;21603;-83
2021/10/22 06:06:49;;;;;;;14.50;7.92;;;;;;;26.18;60.90;100574.97;1643869;86;20993;-85
2021/10/22 06:09:15;;;;;;;17.55;7.47;;;;;;;26.88;61.46;100579.33;1650897;86;20924;-88
2021/10/22 06:11:42;;;;;;;12.58;7.20;;;;;;;27.52;55.42;100596.70;1651152;86;21169;-85
2021/10/22 06:14:08;;;;;;;17.67;6.83;;;;;;;27.83;51.75;100609.41;1650368;86;21067;-85
2021/10/22 06:16:35;;;;;;;15.90;7.42;;;;;;;27.77;49.07;100626.91;1646494;86;21642;-86
2021/10/22 06:19:03;;;;;;;15.90;7.10;;;;;;;27.39;49.40;100625.20;1646458;86;21102;-85
2021/10/22 06:21:36;;;;;;;13.10;6.65;;;;;;;27.46;48.54;100620.34;1650805;86;21697;-85
2021/10/22 06:24:02;;;;;;;16.70;7.70;;;;;;;27.82;47.44;100614.71;1634902;87;21058;-85
2021/10/22 06:26:38;;;;;;;15.32;7.47;;;;;;;28.24;46.36;100622.73;1642785;87;21545;-88
2021/10/22 06:29:06;;;;;;;16.60;7.62;;;;;;;29.04;45.50;100640.37;1596528;89;21528;-87
2021/10/22 06:31:36;;;;;;;15.70;7.00;;;;;;;29.49;42.79;100648.59;1615473;87;21153;-91
2021/10/22 06:34:02;;;;;;;19.17;7.28;;;;;;;29.68;41.62;100646.96;1623104;88;21106;-88
2021/10/22 06:36:28;;;;;;;12.73;7.40;;;;;;;29.43;40.68;100646.18;1622761;88;21060;-88
2021/10/22 06:38:54;;;;;;;19.85;7.10;;;;;;;29.55;40.99;100652.59;1623497;86;21092;-86
2021/10/22 06:41:20;;;;;;;17.60;6.58;;;;;;;29.97;40.28;100647.07;1618180;87;21074;-88
2021/10/22 06:43:46;;;;;;;12.73;6.65;;;;;;;30.19;39.58;100655.69;1623850;88;21032;-85
2021/10/22 06:46:13;;;;;;;16.60;6.87;;;;;;;30.69;38.80;100653.05;1621351;86;21632;-86
2021/10/22 06:48:41;;;;;;;16.65;7.70;;;;;;;30.93;38.01;100650.70;1622431;86;21319;-86
2021/10/22 06:51:10;;;;;;;16.27;6.92;;;;;;;31.46;37.36;100666.58;1603192;86;21158;-87
2021/10/22 06:53:37;;;;;;;11.08;7.00;;;;;;;32.14;36.66;100671.95;1624816;86;21140;-90
2021/10/22 06:56:04;;;;;;;14.28;6.95;;;;;;;32.14;36.66;100671.95;1622518;86;21085;-85
2021/10/22 06:58:30;;;;;;;17.05;7.17;;;;;;;32.19;34.96;100667.95;1665081;82;21134;-85
2021/10/22 07:00:59;;;;;;;14.93;8.10;;;;;;;32.37;34.51;100677.01;1687204;83;21788;-84
2021/10/22 07:08:20;;;;;;;21.12;9.55;;;;;;;32.54;33.89;100670.56;1646226;86;21544;-86
2021/10/22 07:10:47;;;;;;;23.27;8.40;;;;;;;32.60;33.68;100672.92;1643855;86;22005;-85
2021/10/22 07:13:15;;;;;;;14.55;8.15;;;;;;;32.68;32.78;100680.02;1650195;85;21104;-86
2021/10/22 07:15:41;;;;;;;17.60;8.65;;;;;;;32.78;32.83;100679.16;1641600;86;21071;-89
2021/10/22 07:18:08;;;;;;;20.65;8.88;;;;;;;33.06;32.22;100677.37;1645680;86;21125;-90
2021/10/22 07:20:36;;;;;;;23.27;9.80;;;;;;;33.14;32.76;100667.72;1644350;86;21643;-88
2021/10/22 07:23:07;;;;;;;17.05;10.00;;;;;;;33.44;31.65;100663.65;1641444;86;21437;-86
2021/10/22 07:25:35;;;;;;;19.55;9.35;;;;;;;33.36;31.54;100664.92;1677500;82;21082;-88
2021/10/22 07:28:07;;;;;;;22.40;10.70;;;;;;;33.52;30.94;100671.36;1711921;81;21062;-87
2021/10/22 07:30:29;;;;;;;22.17;9.55;;;;;;;33.69;30.71;100670.98;1690384;84;21091;-88
2021/10/22 07:32:54;;;;;;;16.40;9.38;;;;;;;33.64;30.70;100680.61;1662738;84;20971;-87
2021/10/22 07:35:20;;;;;;;18.62;9.98;;;;;;;33.65;30.75;100686.98;1686709;83;20908;-86
2021/10/22 07:37:46;;;;;;;19.75;9.93;;;;;;;34.04;30.38;100681.59;1686378;85;21900;-87
2021/10/22 07:40:12;;;;;;;26.27;11.00;;;;;;;34.04;30.27;100680.98;1686057;85;21130;-87
2021/10/22 07:42:38;;;;;;;18.17;9.40;;;;;;;34.17;30.08;100678.40;1686260;85;20913;-86
2021/10/22 07:45:06;;;;;;;18.62;9.05;;;;;;;34.21;29.72;100676.95;1686100;85;21070;-87
2021/10/22 07:47:37;;;;;;;18.65;9.98;;;;;;;34.33;29.78;100671.59;1682338;85;21127;-89
2021/10/22 07:50:07;;;;;;;20.23;10.13;;;;;;;34.43;29.46;100676.84;1663275;85;21090;-86
2021/10/22 07:52:34;;;;;;;20.27;10.05;;;;;;;34.62;29.59;100687.97;1664242;85;21304;-86
2021/10/22 07:55:03;;;;;;;18.92;10.32;;;;;;;34.92;28.79;100685.72;1641806;86;21158;-89
2021/10/22 07:57:30;;;;;;;16.80;9.28;;;;;;;35.16;28.48;100689.34;1664134;86;21057;-87
2021/10/22 08:00:00;;;;;;;20.62;10.35;;;;;;;34.84;28.36;100692.65;1664423;84;21121;-88
2021/10/22 08:02:27;;;;;;;21.52;9.88;;;;;;;34.73;28.49;100687.82;1685073;83;21714;-87
2021/10/22 08:04:53;;;;;;;22.00;9.98;;;;;;;34.69;28.13;100678.09;1717081;83;21507;-84
2021/10/22 08:07:30;;;;;;;21.82;10.38;;;;;;;34.74;28.11;100678.19;1726617;82;21064;-86
2021/10/22 08:09:57;;;;;;;22.20;10.70;;;;;;;34.66;28.31;100686.55;1746144;82;21008;-84
2021/10/22 08:12:23;;;;;;;22.85;10.68;;;;;;;34.67;27.88;100688.91;1715797;82;20999;-86
2021/10/22 08:14:49;;;;;;;25.50;9.43;;;;;;;34.46;27.79;100686.41;1715229;82;21138;-87
2021/10/22 08:17:20;;;;;;;24.07;9.93;;;;;;;34.54;28.49;100686.48;1715291;83;22249;-85
2021/10/22 08:20:01;;;;;;;16.13;10.57;;;;;;;34.81;28.04;100686.50;1715597;83;21070;-90
2021/10/22 08:22:31;;;;;;;23.80;10.72;;;;;;;35.11;27.34;100689.04;1693446;82;21070;-89
2021/10/22 08:25:09;;;;;;;20.02;10.48;;;;;;;34.83;27.55;100699.48;1691729;82;21038;-87
2021/10/22 08:27:40;;;;;;;23.25;10.63;;;;;;;34.33;27.69;100701.59;1688221;84;21225;-89
2021/10/22 08:30:11;;;;;;;24.98;11.38;;;;;;;34.28;27.13;100702.05;1660186;82;21114;-86
2021/10/22 08:32:38;;;;;;;28.30;11.60;;;;;;;32.61;28.25;100697.62;1713012;83;21076;-86
2021/10/22 08:35:06;;;;;;;33.23;12.05;;;;;;;30.68;30.36;100715.45;1712688;83;21013;-87
2021/10/22 08:37:35;;;;;;;23.85;11.30;;;;;;;29.14;32.20;100715.17;1713094;83;21018;-86
2021/10/22 08:40:03;;;;;;;35.17;13.98;;;;;;;27.89;34.30;100714.55;1713584;82;21923;-84
2021/10/22 08:42:29;;;;;;;23.45;11.90;;;;;;;27.11;35.84;100721.78;1742626;82;21066;-83
2021/10/22 08:44:55;;;;;;;31.17;12.15;;;;;;;26.28;36.99;100722.18;1742471;82;20884;-86
2021/10/22 08:47:31;;;;;;;35.60;13.25;;;;;;;25.54;38.59;100715.80;1717293;82;21137;-87
2021/10/22 08:50:07;;;;;;;29.90;12.93;;;;;;;24.89;39.77;100720.27;1742210;82;21015;-83
2021/10/22 08:52:35;;;;;;;33.60;14.13;;;;;;;24.14;41.58;100724.45;1741979;82;21088;-83
2021/10/22 08:55:07;;;;;;;31.00;13.13;;;;;;;23.50;42.69;100724.64;1741106;82;21610;-84
2021/10/22 08:57:37;;;;;;;29.00;13.60;;;;;;;23.17;44.72;100722.55;1722015;83;21133;-85
2021/10/22 09:00:06;;;;;;;33.48;14.15;;;;;;;22.93;45.86;100726.83;1701599;82;21523;-89
2021/10/22 09:02:32;;;;;;;35.08;13.50;;;;;;;22.66;46.67;100727.67;1698002;83;21138;-87
2021/10/22 09:05:16;;;;;;;31.40;13.72;;;;;;;22.32;48.44;100725.23;1698203;83;21942;-88
2021/10/22 09:07:55;;;;;;;33.83;14.63;;;;;;;21.98;49.47;100721.02;1705445;83;21057;-85
2021/10/22 09:10:30;;;;;;;35.40;14.50;;;;;;;21.83;51.44;100713.96;1648094;85;21092;-85
2021/10/22 09:13:06;;;;;;;35.52;14.58;;;;;;;21.59;53.31;100707.16;1656552;86;21079;-86
2021/10/22 09:15:39;;;;;;;45.65;15.50;;;;;;;21.45;55.32;100705.22;1642161;86;21601;-83
2021/10/22 09:18:19;;;;;;;46.43;13.90;;;;;;;21.37;57.09;100701.37;1642165;86;21307;-84
2021/10/22 09:20:58;;;;;;;38.65;14.78;;;;;;;21.32;57.33;100702.89;1640387;87;21060;-84
2021/10/22 09:23:41;;;;;;;29.72;13.88;;;;;;;21.23;58.54;100706.24;1644371;87;20968;-85
2021/10/22 09:28:50;;;;;;;35.10;15.00;;;;;;;20.91;60.95;100702.16;1527975;92;21509;-89
2021/10/22 09:31:21;;;;;;;29.45;13.85;;;;;;;20.73;62.48;100704.14;1526290;92;21862;-86
2021/10/22 09:33:59;;;;;;;33.98;13.48;;;;;;;20.78;64.80;100699.30;1465931;95;21075;-85
2021/10/22 09:36:38;;;;;;;30.48;13.93;;;;;;;20.78;65.10;100700.66;1447196;98;21014;-86
2021/10/22 09:39:13;;;;;;;31.93;14.35;;;;;;;20.72;65.46;100701.97;1447182;98;21133;-85
2021/10/22 09:41:54;;;;;;;34.83;14.38;;;;;;;20.62;65.23;100699.02;1426438;99;21534;-85
2021/10/22 09:44:35;;;;;;;32.40;14.87;;;;;;;20.56;67.35;100691.28;1480405;96;21194;-86
2021/10/22 09:47:09;;;;;;;36.05;14.78;;;;;;;20.41;67.96;100701.59;1480539;96;21822;-85
2021/10/22 09:49:53;;;;;;;36.40;15.30;;;;;;;20.42;68.63;100690.87;1480231;96;21133;-85
2021/10/22 09:52:30;;;;;;;41.20;14.87;;;;;;;20.56;67.43;100700.32;1477602;96;21113;-86
2021/10/22 09:55:14;;;;;;;36.50;14.05;;;;;;;20.45;66.43;100700.38;1461480;96;21152;-84
2021/10/22 09:57:45;;;;;;;35.85;13.75;;;;;;;20.34;68.21;100697.16;1479451;96;21231;-84
2021/10/22 10:00:22;;;;;;;33.10;15.20;;;;;;;20.28;68.73;100702.55;1480702;96;21092;-84
2021/10/22 10:02:49;;;;;;;36.03;14.98;;;;;;;20.25;70.17;100697.73;1443815;97;21594;-85
2021/10/22 10:05:18;;;;;;;38.00;16.87;;;;;;;20.32;69.35;100698.03;1421200;99;21184;-84
2021/10/22 10:07:46;;;;;;;34.55;15.93;;;;;;;20.29;70.11;100699.25;1419859;99;21079;-85
2021/10/22 10:10:14;;;;;;;40.70;14.93;;;;;;;20.24;70.68;100696.12;1418126;101;21435;-84
2021/10/22 10:12:41;;;;;;;38.33;15.08;;;;;;;20.26;71.95;100690.31;1441411;97;21114;-85
2021/10/22 10:15:10;;;;;;;33.28;14.20;;;;;;;20.19;71.97;100690.23;1452023;98;21173;-85
2021/10/22 10:17:50;;;;;;;38.95;15.00;;;;;;;20.20;74.29;100696.52;1452112;97;21111;-85
2021/10/22 10:20:26;;;;;;;41.28;14.45;;;;;;;20.26;74.01;100691.11;1430365;98;21152;-86
2021/10/22 10:22:53;;;;;;;33.10;13.50;;;;;;;20.29;72.99;100693.77;1424440;98;21151;-85
2021/10/22 10:25:23;;;;;;;41.63;15.90;;;;;;;20.31;73.30;100687.42;1475322;96;21206;-86
2021/10/22 10:28:06;;;;;;;;;;;;;;;;;;;;;
2021/10/22 10:30:39;;;;;;;39.03;14.43;;;;;;;20.26;72.42;100686.21;1396147;102;21156;-85
2021/10/22 10:33:10;;;;;;;;;;;;;;;20.28;71.17;100696.28;1389584;103;21161;-86
2021/10/22 10:35:48;;;;;;;40.17;14.33;;;;;;;20.14;70.43;100698.60;1393555;101;20573;-84
2021/10/22 10:38:13;;;;;;;40.35;14.40;;;;;;;20.07;71.03;100698.86;1395088;101;21168;-83
2021/10/22 10:40:46;;;;;;;38.83;14.60;;;;;;;20.16;71.25;100690.88;1375127;101;21347;-83
2021/10/22 10:43:35;;;;;;;;;;;;;;;;;;;;;
2021/10/22 10:46:05;;;;;;;33.05;14.03;;;;;;;20.33;71.71;100690.66;1305796;108;21276;-83
2021/10/22 10:48:36;;;;;;;40.43;13.45;;;;;;;20.32;70.01;100692.56;1308450;108;21386;-83
2021/10/22 10:51:07;;;;;;;35.40;15.45;;;;;;;20.23;69.54;100669.07;1278101;110;21244;-83
2021/10/22 10:53:43;;;;;;;36.35;13.95;;;;;;;20.36;68.97;100687.27;1247596;113;21321;-83
2021/10/22 10:56:35;;;;;;;32.10;13.10;;;;;;;20.39;70.42;100689.36;1248745;113;21321;-84
2021/10/22 10:59:02;;;;;;;30.70;12.10;;;;;;;20.42;66.75;100679.92;1253561;112;21244;-82
2021/10/22 11:01:34;;;;;;;36.38;12.58;;;;;;;20.41;67.95;100678.87;1257512;111;21309;-83
2021/10/22 11:03:59;;;;;;;37.23;13.03;;;;;;;20.42;68.89;100680.50;1281477;110;21183;-82
2021/10/22 11:06:47;;;;;;;33.83;12.73;;;;;;;20.42;68.32;100674.45;1295106;108;21269;-84
2021/10/22 11:09:17;;;;;;;30.88;12.65;;;;;;;20.49;70.33;100682.16;1294702;109;21200;-85
2021/10/22 11:11:49;;;;;;;30.32;11.63;;;;;;;20.56;67.83;100673.48;1295571;109;21669;-83
2021/10/22 11:14:29;;;;;;;;;;;;;;;;;;;;;
2021/10/22 11:17:13;;;;;;;27.48;11.85;;;;;;;20.63;67.98;100678.71;1245828;112;22408;-83
2021/10/22 11:20:00;;;;;;;;;;;;;;;;;;;;;
2021/10/22 11:22:36;;;;;;;;;;;;;;;;;;;;;
2021/10/22 11:39:05;;;;;;;24.72;11.10;;;;;;;20.67;64.92;100679.42;;;;
2021/10/22 11:41:31;;;;;;;27.17;11.48;;;;;;;20.74;64.70;100673.70;1246658;112;22415;-84
2021/10/22 11:44:07;;;;;;;31.90;11.88;;;;;;;20.79;63.35;100674.08;1260404;110;21118;-82
2021/10/22 11:46:47;;;;;;;33.58;12.68;;;;;;;20.79;63.24;100672.70;1261089;112;21313;-83
2021/10/22 11:49:35;;;;;;;35.35;13.65;;;;;;;20.79;62.35;100672.13;1225142;115;21255;-81
2021/10/22 11:52:02;;;;;;;38.70;14.05;;;;;;;20.81;62.79;100680.84;1239870;112;22160;-83